sensor_id;sensor_type;location;lat;lon;timestamp;pressure;altitude;pressure_sealevel;temperature;humidity
17781;BME280;8498;52.516;13.790;2024-03-29T00:01:09;99339.50;;;10.22;74.93
17781;BME280;8498;52.516;13.790;2024-03-29T00:06:31;99332.44;;;10.11;75.31
17781;BME280;8498;52.516;13.790;2024-03-29T00:11:52;99345.28;;;10.06;76.42
17781;BME280;8498;52.516;13.790;2024-03-29T00:17:13;99359.81;;;10.12;76.83
17781;BME280;8498;52.516;13.790;2024-03-29T00:22:35;99365.25;;;10.10;76.66
17781;BME280;8498;52.516;13.790;2024-03-29T00:27:56;99357.28;;;10.10;76.96
17781;BME280;8498;52.516;13.790;2024-03-29T00:33:17;99366.50;;;10.06;76.83
17781;BME280;8498;52.516;13.790;2024-03-29T00:38:38;99363.69;;;10.08;77.01
17781;BME280;8498;52.516;13.790;2024-03-29T00:43:59;99373.28;;;10.20;76.21
17781;BME280;8498;52.516;13.790;2024-03-29T00:49:21;99379.47;;;10.30;75.68
17781;BME280;8498;52.516;13.790;2024-03-29T00:54:42;99385.09;;;10.37;74.65
17781;BME280;8498;52.516;13.790;2024-03-29T01:00:03;99401.69;;;10.39;75.33
17781;BME280;8498;52.516;13.790;2024-03-29T01:05:25;99410.16;;;10.23;78.00
17781;BME280;8498;52.516;13.790;2024-03-29T01:10:46;99413.63;;;9.93;80.86
17781;BME280;8498;52.516;13.790;2024-03-29T01:16:07;99396.47;;;9.76;82.72
17781;BME280;8498;52.516;13.790;2024-03-29T01:21:28;99393.59;;;9.58;84.48
17781;BME280;8498;52.516;13.790;2024-03-29T01:26:50;99388.63;;;9.44;85.69
17781;BME280;8498;52.516;13.790;2024-03-29T01:32:11;99405.06;;;9.27;88.34
17781;BME280;8498;52.516;13.790;2024-03-29T01:37:32;99407.91;;;9.03;91.35
17781;BME280;8498;52.516;13.790;2024-03-29T01:42:54;99403.97;;;8.98;92.08
17781;BME280;8498;52.516;13.790;2024-03-29T01:48:17;99400.53;;;8.86;93.10
17781;BME280;8498;52.516;13.790;2024-03-29T01:53:39;99409.84;;;8.69;92.52
17781;BME280;8498;52.516;13.790;2024-03-29T01:59:03;99406.88;;;8.40;94.19
17781;BME280;8498;52.516;13.790;2024-03-29T02:04:24;99408.41;;;8.21;96.11
17781;BME280;8498;52.516;13.790;2024-03-29T02:09:46;99409.13;;;8.23;96.21
17781;BME280;8498;52.516;13.790;2024-03-29T02:15:07;99399.28;;;8.25;96.26
17781;BME280;8498;52.516;13.790;2024-03-29T02:20:28;99418.03;;;8.22;96.88
17781;BME280;8498;52.516;13.790;2024-03-29T02:25:50;99424.16;;;8.22;97.49
17781;BME280;8498;52.516;13.790;2024-03-29T02:31:11;99430.28;;;8.23;97.55
17781;BME280;8498;52.516;13.790;2024-03-29T02:36:32;99422.63;;;8.20;97.73
17781;BME280;8498;52.516;13.790;2024-03-29T02:41:53;99429.59;;;8.09;97.03
17781;BME280;8498;52.516;13.790;2024-03-29T02:47:14;99431.34;;;7.87;97.46
17781;BME280;8498;52.516;13.790;2024-03-29T02:52:36;99434.09;;;7.85;98.20
17781;BME280;8498;52.516;13.790;2024-03-29T02:57:57;99444.06;;;7.82;97.07
17781;BME280;8498;52.516;13.790;2024-03-29T03:03:18;99443.53;;;7.54;97.07
17781;BME280;8498;52.516;13.790;2024-03-29T03:08:39;99451.81;;;7.61;97.97
17781;BME280;8498;52.516;13.790;2024-03-29T03:14:19;99455.09;;;7.64;97.20
17781;BME280;8498;52.516;13.790;2024-03-29T03:19:40;99463.63;;;7.68;96.92
17781;BME280;8498;52.516;13.790;2024-03-29T03:25:01;99474.81;;;7.71;96.35
17781;BME280;8498;52.516;13.790;2024-03-29T03:30:22;99470.34;;;7.72;96.13
17781;BME280;8498;52.516;13.790;2024-03-29T03:35:43;99472.53;;;7.67;95.98
17781;BME280;8498;52.516;13.790;2024-03-29T03:41:05;99482.84;;;7.70;95.50
17781;BME280;8498;52.516;13.790;2024-03-29T03:46:26;99479.97;;;7.73;94.62
17781;BME280;8498;52.516;13.790;2024-03-29T03:51:47;99491.13;;;7.65;95.02
17781;BME280;8498;52.516;13.790;2024-03-29T03:57:08;99477.66;;;7.57;94.26
17781;BME280;8498;52.516;13.790;2024-03-29T04:02:29;99486.59;;;7.44;94.13
17781;BME280;8498;52.516;13.790;2024-03-29T04:07:50;99467.94;;;7.34;94.56
17781;BME280;8498;52.516;13.790;2024-03-29T04:13:12;99476.88;;;7.20;94.71
17781;BME280;8498;52.516;13.790;2024-03-29T04:18:33;99465.34;;;6.97;95.21
17781;BME280;8498;52.516;13.790;2024-03-29T04:23:54;99473.84;;;6.90;96.94
17781;BME280;8498;52.516;13.790;2024-03-29T04:29:16;99478.09;;;6.80;96.36
17781;BME280;8498;52.516;13.790;2024-03-29T04:34:37;99480.94;;;6.77;97.41
17781;BME280;8498;52.516;13.790;2024-03-29T04:39:58;99479.59;;;6.71;97.10
17781;BME280;8498;52.516;13.790;2024-03-29T04:45:19;99467.44;;;6.69;98.56
17781;BME280;8498;52.516;13.790;2024-03-29T04:50:40;99478.84;;;6.69;98.65
17781;BME280;8498;52.516;13.790;2024-03-29T04:56:02;99470.28;;;6.78;98.99
17781;BME280;8498;52.516;13.790;2024-03-29T05:01:23;99467.63;;;6.78;98.04
17781;BME280;8498;52.516;13.790;2024-03-29T05:06:44;99476.50;;;6.77;98.51
17781;BME280;8498;52.516;13.790;2024-03-29T05:12:06;99466.13;;;6.87;98.24
17781;BME280;8498;52.516;13.790;2024-03-29T05:17:27;99468.84;;;6.98;97.06
17781;BME280;8498;52.516;13.790;2024-03-29T05:22:48;99470.09;;;7.05;96.89
17781;BME280;8498;52.516;13.790;2024-03-29T05:28:09;99494.13;;;7.13;95.97
17781;BME280;8498;52.516;13.790;2024-03-29T05:33:31;99483.97;;;7.20;96.04
17781;BME280;8498;52.516;13.790;2024-03-29T05:38:52;99491.72;;;7.34;95.44
17781;BME280;8498;52.516;13.790;2024-03-29T05:44:13;99498.88;;;7.45;94.95
17781;BME280;8498;52.516;13.790;2024-03-29T05:49:35;99493.50;;;7.57;93.76
17781;BME280;8498;52.516;13.790;2024-03-29T05:54:56;99486.22;;;7.72;93.22
17781;BME280;8498;52.516;13.790;2024-03-29T06:00:17;99478.94;;;7.87;91.35
17781;BME280;8498;52.516;13.790;2024-03-29T06:05:41;99496.63;;;7.97;90.70
17781;BME280;8498;52.516;13.790;2024-03-29T06:11:03;99501.94;;;8.08;89.75
17781;BME280;8498;52.516;13.790;2024-03-29T06:16:25;99502.31;;;8.15;89.18
17781;BME280;8498;52.516;13.790;2024-03-29T06:22:05;99511.63;;;8.32;88.64
17781;BME280;8498;52.516;13.790;2024-03-29T06:27:28;99506.44;;;8.41;87.83
17781;BME280;8498;52.516;13.790;2024-03-29T06:32:49;99514.16;;;8.56;87.26
17781;BME280;8498;52.516;13.790;2024-03-29T06:38:10;99516.59;;;8.70;86.72
17781;BME280;8498;52.516;13.790;2024-03-29T06:43:31;99530.16;;;8.76;86.32
17781;BME280;8498;52.516;13.790;2024-03-29T06:48:52;99528.13;;;8.91;84.42
17781;BME280;8498;52.516;13.790;2024-03-29T06:54:13;99533.50;;;9.12;83.82
17781;BME280;8498;52.516;13.790;2024-03-29T06:59:34;99550.81;;;9.27;83.10
17781;BME280;8498;52.516;13.790;2024-03-29T07:04:56;99551.63;;;9.39;80.36
17781;BME280;8498;52.516;13.790;2024-03-29T07:10:17;99570.81;;;9.74;78.87
17781;BME280;8498;52.516;13.790;2024-03-29T07:15:38;99555.78;;;9.96;77.63
17781;BME280;8498;52.516;13.790;2024-03-29T07:21:00;99557.25;;;10.09;76.31
17781;BME280;8498;52.516;13.790;2024-03-29T07:26:22;99563.84;;;10.26;75.26
17781;BME280;8498;52.516;13.790;2024-03-29T07:31:43;99574.47;;;10.47;74.97
17781;BME280;8498;52.516;13.790;2024-03-29T07:37:04;99599.38;;;10.76;73.10
17781;BME280;8498;52.516;13.790;2024-03-29T07:42:25;99601.59;;;10.81;69.33
17781;BME280;8498;52.516;13.790;2024-03-29T07:47:48;99591.19;;;11.29;68.74
17781;BME280;8498;52.516;13.790;2024-03-29T07:53:14;99597.28;;;11.10;66.07
17781;BME280;8498;52.516;13.790;2024-03-29T07:58:36;99594.66;;;11.20;64.99
17781;BME280;8498;52.516;13.790;2024-03-29T08:03:57;99595.81;;;11.36;64.43
17781;BME280;8498;52.516;13.790;2024-03-29T08:09:19;99620.88;;;11.44;64.23
17781;BME280;8498;52.516;13.790;2024-03-29T08:14:40;99624.28;;;11.55;63.99
17781;BME280;8498;52.516;13.790;2024-03-29T08:20:03;99618.41;;;11.52;62.73
17781;BME280;8498;52.516;13.790;2024-03-29T08:25:24;99633.88;;;11.77;63.74
17781;BME280;8498;52.516;13.790;2024-03-29T08:31:03;99625.97;;;11.66;62.75
17781;BME280;8498;52.516;13.790;2024-03-29T08:36:24;99641.47;;;11.82;62.70
17781;BME280;8498;52.516;13.790;2024-03-29T08:41:45;99641.22;;;12.04;62.90
17781;BME280;8498;52.516;13.790;2024-03-29T08:47:06;99619.34;;;12.10;63.81
17781;BME280;8498;52.516;13.790;2024-03-29T08:52:28;99595.25;;;12.21;64.67
17781;BME280;8498;52.516;13.790;2024-03-29T08:57:49;99568.34;;;12.34;66.92
17781;BME280;8498;52.516;13.790;2024-03-29T09:03:10;99580.66;;;12.44;69.96
17781;BME280;8498;52.516;13.790;2024-03-29T09:08:32;99604.44;;;12.65;66.70
17781;BME280;8498;52.516;13.790;2024-03-29T09:13:53;99593.88;;;12.83;64.36
17781;BME280;8498;52.516;13.790;2024-03-29T09:19:15;99608.50;;;13.16;64.17
17781;BME280;8498;52.516;13.790;2024-03-29T09:24:36;99619.47;;;13.40;64.28
17781;BME280;8498;52.516;13.790;2024-03-29T09:29:58;99624.13;;;13.83;59.98
17781;BME280;8498;52.516;13.790;2024-03-29T09:35:20;99617.31;;;13.71;58.05
17781;BME280;8498;52.516;13.790;2024-03-29T09:40:41;99608.44;;;13.80;55.55
17781;BME280;8498;52.516;13.790;2024-03-29T09:46:03;99607.13;;;14.02;55.04
17781;BME280;8498;52.516;13.790;2024-03-29T09:51:25;99605.84;;;14.06;54.89
17781;BME280;8498;52.516;13.790;2024-03-29T09:56:47;99603.84;;;14.26;51.89
17781;BME280;8498;52.516;13.790;2024-03-29T10:02:15;99622.28;;;14.73;52.07
17781;BME280;8498;52.516;13.790;2024-03-29T10:07:38;99618.28;;;14.51;50.89
17781;BME280;8498;52.516;13.790;2024-03-29T10:12:59;99619.13;;;14.51;51.79
17781;BME280;8498;52.516;13.790;2024-03-29T10:18:26;99613.69;;;14.43;51.24
17781;BME280;8498;52.516;13.790;2024-03-29T10:23:48;99596.84;;;14.68;50.90
17781;BME280;8498;52.516;13.790;2024-03-29T10:29:09;99603.16;;;14.59;50.98
17781;BME280;8498;52.516;13.790;2024-03-29T10:34:31;99597.69;;;14.69;51.54
17781;BME280;8498;52.516;13.790;2024-03-29T10:39:57;99601.91;;;14.72;51.35
17781;BME280;8498;52.516;13.790;2024-03-29T10:45:19;99597.69;;;14.69;53.42
17781;BME280;8498;52.516;13.790;2024-03-29T10:50:43;99587.66;;;14.45;56.43
17781;BME280;8498;52.516;13.790;2024-03-29T10:56:07;99581.38;;;14.11;57.50
17781;BME280;8498;52.516;13.790;2024-03-29T11:01:28;99576.94;;;14.19;60.23
17781;BME280;8498;52.516;13.790;2024-03-29T11:06:51;99576.03;;;14.54;61.57
17781;BME280;8498;52.516;13.790;2024-03-29T11:12:16;99550.03;;;14.90;60.97
17781;BME280;8498;52.516;13.790;2024-03-29T11:17:38;99510.19;;;15.96;59.77
17781;BME280;8498;52.516;13.790;2024-03-29T11:23:02;99475.16;;;17.24;55.62
17781;BME280;8498;52.516;13.790;2024-03-29T11:28:29;99474.78;;;17.35;51.54
17781;BME280;8498;52.516;13.790;2024-03-29T11:33:51;99469.63;;;16.95;50.79
17781;BME280;8498;52.516;13.790;2024-03-29T11:39:22;99449.38;;;16.92;50.90
17781;BME280;8498;52.516;13.790;2024-03-29T11:44:44;99460.56;;;16.40;51.20
17781;BME280;8498;52.516;13.790;2024-03-29T11:50:06;99477.72;;;16.07;51.62
17781;BME280;8498;52.516;13.790;2024-03-29T11:55:29;99478.22;;;16.19;52.00
17781;BME280;8498;52.516;13.790;2024-03-29T12:00:51;99478.53;;;16.24;51.14
17781;BME280;8498;52.516;13.790;2024-03-29T12:06:12;99483.22;;;16.22;51.89
17781;BME280;8498;52.516;13.790;2024-03-29T12:11:33;99492.28;;;16.04;52.98
17781;BME280;8498;52.516;13.790;2024-03-29T12:16:54;99498.63;;;16.03;55.17
17781;BME280;8498;52.516;13.790;2024-03-29T12:22:17;99509.19;;;15.97;53.50
17781;BME280;8498;52.516;13.790;2024-03-29T12:27:38;99504.81;;;15.79;51.82
17781;BME280;8498;52.516;13.790;2024-03-29T12:33:04;99506.34;;;16.06;50.88
17781;BME280;8498;52.516;13.790;2024-03-29T12:38:27;99485.56;;;16.17;50.03
17781;BME280;8498;52.516;13.790;2024-03-29T12:43:49;99437.75;;;16.52;48.96
17781;BME280;8498;52.516;13.790;2024-03-29T12:49:10;99434.97;;;16.85;47.57
17781;BME280;8498;52.516;13.790;2024-03-29T14:53:45;99325.94;;;18.49;39.68
17781;BME280;8498;52.516;13.790;2024-03-29T14:59:10;99349.91;;;18.94;39.08
17781;BME280;8498;52.516;13.790;2024-03-29T15:04:33;99346.34;;;18.73;41.50
17781;BME280;8498;52.516;13.790;2024-03-29T15:09:54;99335.78;;;18.56;40.36
17781;BME280;8498;52.516;13.790;2024-03-29T15:15:15;99353.81;;;18.26;40.92
17781;BME280;8498;52.516;13.790;2024-03-29T15:20:37;99368.63;;;18.22;41.14
17781;BME280;8498;52.516;13.790;2024-03-29T15:25:58;99369.72;;;17.84;42.22
17781;BME280;8498;52.516;13.790;2024-03-29T15:31:21;99363.38;;;17.77;43.26
17781;BME280;8498;52.516;13.790;2024-03-29T15:36:45;99369.63;;;17.54;44.02
17781;BME280;8498;52.516;13.790;2024-03-29T15:42:06;99367.72;;;17.40;44.94
17781;BME280;8498;52.516;13.790;2024-03-29T15:47:30;99366.53;;;17.43;45.85
17781;BME280;8498;52.516;13.790;2024-03-29T15:52:51;99373.44;;;17.37;46.51
17781;BME280;8498;52.516;13.790;2024-03-29T15:58:13;99387.28;;;17.26;46.96
17781;BME280;8498;52.516;13.790;2024-03-29T16:03:35;99395.38;;;17.18;47.61
17781;BME280;8498;52.516;13.790;2024-03-29T16:08:56;99396.69;;;16.99;48.47
17781;BME280;8498;52.516;13.790;2024-03-29T16:14:17;99402.38;;;16.96;48.83
17781;BME280;8498;52.516;13.790;2024-03-29T16:19:38;99413.34;;;16.86;50.01
17781;BME280;8498;52.516;13.790;2024-03-29T16:25:01;99421.97;;;16.66;50.98
17781;BME280;8498;52.516;13.790;2024-03-29T16:30:23;99432.06;;;16.47;52.18
17781;BME280;8498;52.516;13.790;2024-03-29T16:35:44;99441.63;;;16.42;52.98
17781;BME280;8498;52.516;13.790;2024-03-29T16:41:06;99439.31;;;16.39;54.26
17781;BME280;8498;52.516;13.790;2024-03-29T16:46:27;99425.91;;;16.39;54.30
17781;BME280;8498;52.516;13.790;2024-03-29T16:51:48;99420.25;;;16.26;55.54
17781;BME280;8498;52.516;13.790;2024-03-29T16:57:09;99414.25;;;16.15;56.83
17781;BME280;8498;52.516;13.790;2024-03-29T17:02:30;99403.22;;;16.02;58.34
17781;BME280;8498;52.516;13.790;2024-03-29T17:07:52;99426.00;;;15.98;59.74
17781;BME280;8498;52.516;13.790;2024-03-29T17:13:13;99415.63;;;15.87;61.22
17781;BME280;8498;52.516;13.790;2024-03-29T17:18:35;99434.34;;;15.79;61.74
17781;BME280;8498;52.516;13.790;2024-03-29T17:23:56;99442.06;;;15.58;63.35
17781;BME280;8498;52.516;13.790;2024-03-29T17:29:18;99442.41;;;15.55;64.23
17781;BME280;8498;52.516;13.790;2024-03-29T17:34:39;99444.03;;;15.48;65.09
17781;BME280;8498;52.516;13.790;2024-03-29T17:40:01;99438.88;;;15.46;65.62
17781;BME280;8498;52.516;13.790;2024-03-29T17:45:22;99449.72;;;15.45;66.12
17781;BME280;8498;52.516;13.790;2024-03-29T17:50:44;99451.72;;;15.34;66.69
17781;BME280;8498;52.516;13.790;2024-03-29T17:56:06;99436.66;;;15.25;67.34
17781;BME280;8498;52.516;13.790;2024-03-29T18:01:27;99467.88;;;15.17;68.07
17781;BME280;8498;52.516;13.790;2024-03-29T18:06:48;99457.84;;;15.11;68.85
17781;BME280;8498;52.516;13.790;2024-03-29T18:12:09;99478.88;;;15.05;69.47
17781;BME280;8498;52.516;13.790;2024-03-29T18:17:30;99485.72;;;15.00;70.22
17781;BME280;8498;52.516;13.790;2024-03-29T18:22:51;99499.06;;;14.92;71.16
17781;BME280;8498;52.516;13.790;2024-03-29T18:28:13;99508.09;;;14.91;71.70
17781;BME280;8498;52.516;13.790;2024-03-29T18:33:35;99506.09;;;14.93;71.97
17781;BME280;8498;52.516;13.790;2024-03-29T18:38:57;99521.91;;;14.86;72.89
17781;BME280;8498;52.516;13.790;2024-03-29T18:44:19;99529.78;;;14.88;73.51
17781;BME280;8498;52.516;13.790;2024-03-29T18:49:40;99547.53;;;14.97;72.62
17781;BME280;8498;52.516;13.790;2024-03-29T18:55:01;99536.19;;;14.95;72.65
17781;BME280;8498;52.516;13.790;2024-03-29T19:00:22;99548.50;;;14.88;73.04
17781;BME280;8498;52.516;13.790;2024-03-29T19:05:46;99551.56;;;14.93;72.90
17781;BME280;8498;52.516;13.790;2024-03-29T19:11:09;99547.66;;;14.87;72.86
17781;BME280;8498;52.516;13.790;2024-03-29T19:16:30;99558.84;;;14.83;73.50
17781;BME280;8498;52.516;13.790;2024-03-29T19:21:52;99554.97;;;14.77;73.83
17781;BME280;8498;52.516;13.790;2024-03-29T19:27:13;99550.94;;;14.73;74.73
17781;BME280;8498;52.516;13.790;2024-03-29T19:32:34;99548.06;;;14.66;74.43
17781;BME280;8498;52.516;13.790;2024-03-29T19:37:58;99541.66;;;14.59;74.78
17781;BME280;8498;52.516;13.790;2024-03-29T19:43:20;99539.06;;;14.42;77.27
17781;BME280;8498;52.516;13.790;2024-03-29T19:48:41;99540.72;;;14.25;79.30
17781;BME280;8498;52.516;13.790;2024-03-29T19:54:02;99550.50;;;14.16;80.74
17781;BME280;8498;52.516;13.790;2024-03-29T19:59:24;99558.47;;;14.08;83.13
17781;BME280;8498;52.516;13.790;2024-03-29T20:04:45;99546.56;;;14.03;84.53
17781;BME280;8498;52.516;13.790;2024-03-29T20:10:06;99549.56;;;14.00;85.17
17781;BME280;8498;52.516;13.790;2024-03-29T20:15:28;99567.00;;;13.94;86.11
17781;BME280;8498;52.516;13.790;2024-03-29T20:20:50;99572.13;;;13.87;87.47
17781;BME280;8498;52.516;13.790;2024-03-29T20:26:11;99591.50;;;13.89;85.89
17781;BME280;8498;52.516;13.790;2024-03-29T20:31:35;99600.34;;;14.08;84.68
17781;BME280;8498;52.516;13.790;2024-03-29T20:36:56;99611.66;;;14.19;84.33
17781;BME280;8498;52.516;13.790;2024-03-29T20:42:17;99603.25;;;14.14;88.29
17781;BME280;8498;52.516;13.790;2024-03-29T20:47:38;99604.59;;;13.83;97.32
17781;BME280;8498;52.516;13.790;2024-03-29T20:52:59;99605.09;;;13.51;100.00
17781;BME280;8498;52.516;13.790;2024-03-29T20:58:22;99615.88;;;13.32;100.00
17781;BME280;8498;52.516;13.790;2024-03-29T21:03:43;99600.75;;;13.22;100.00
17781;BME280;8498;52.516;13.790;2024-03-29T21:09:23;99588.41;;;13.12;100.00
17781;BME280;8498;52.516;13.790;2024-03-29T21:14:44;99585.19;;;13.08;100.00
17781;BME280;8498;52.516;13.790;2024-03-29T21:20:06;99593.41;;;12.97;100.00
17781;BME280;8498;52.516;13.790;2024-03-29T21:25:31;99597.47;;;12.92;100.00
17781;BME280;8498;52.516;13.790;2024-03-29T21:30:55;99593.59;;;12.86;100.00
17781;BME280;8498;52.516;13.790;2024-03-29T21:36:16;99607.75;;;12.86;100.00
17781;BME280;8498;52.516;13.790;2024-03-29T21:41:37;99623.78;;;12.77;100.00
17781;BME280;8498;52.516;13.790;2024-03-29T21:46:58;99619.00;;;12.71;100.00
17781;BME280;8498;52.516;13.790;2024-03-29T21:52:20;99623.63;;;12.69;100.00
17781;BME280;8498;52.516;13.790;2024-03-29T21:57:41;99640.91;;;12.65;100.00
17781;BME280;8498;52.516;13.790;2024-03-29T22:03:02;99632.47;;;12.60;100.00
17781;BME280;8498;52.516;13.790;2024-03-29T22:08:23;99637.81;;;12.50;100.00
17781;BME280;8498;52.516;13.790;2024-03-29T22:13:44;99649.91;;;12.35;100.00
17781;BME280;8498;52.516;13.790;2024-03-29T22:19:05;99655.06;;;12.17;100.00
17781;BME280;8498;52.516;13.790;2024-03-29T22:24:28;99658.72;;;12.06;100.00
17781;BME280;8498;52.516;13.790;2024-03-29T22:29:50;99671.03;;;11.98;100.00
17781;BME280;8498;52.516;13.790;2024-03-29T22:35:11;99659.66;;;11.86;100.00
17781;BME280;8498;52.516;13.790;2024-03-29T22:40:33;99650.41;;;11.81;100.00
17781;BME280;8498;52.516;13.790;2024-03-29T22:45:54;99656.25;;;11.74;100.00
17781;BME280;8498;52.516;13.790;2024-03-29T22:51:15;99648.09;;;11.66;100.00
17781;BME280;8498;52.516;13.790;2024-03-29T22:56:37;99641.91;;;11.56;100.00
17781;BME280;8498;52.516;13.790;2024-03-29T23:01:58;99654.81;;;11.51;100.00
17781;BME280;8498;52.516;13.790;2024-03-29T23:07:20;99658.53;;;11.39;100.00
17781;BME280;8498;52.516;13.790;2024-03-29T23:12:42;99645.25;;;11.39;100.00
17781;BME280;8498;52.516;13.790;2024-03-29T23:18:04;99638.47;;;11.25;100.00
17781;BME280;8498;52.516;13.790;2024-03-29T23:23:25;99646.00;;;11.20;100.00
17781;BME280;8498;52.516;13.790;2024-03-29T23:28:46;99655.16;;;11.07;100.00
17781;BME280;8498;52.516;13.790;2024-03-29T23:34:08;99648.72;;;10.99;100.00
17781;BME280;8498;52.516;13.790;2024-03-29T23:39:29;99639.47;;;11.03;100.00
17781;BME280;8498;52.516;13.790;2024-03-29T23:44:50;99639.94;;;11.09;100.00
17781;BME280;8498;52.516;13.790;2024-03-29T23:50:11;99636.16;;;11.11;100.00
17781;BME280;8498;52.516;13.790;2024-03-29T23:55:33;99633.66;;;11.10;100.00
